Time;durP1;ratioP1;P1;durP2;ratioP2;P2;SDS_P1;SDS_P2;PMS_P1;PMS_P2;Temp;Humidity;BMP_temperature;BMP_pressure;BME280_temperature;BME280_humidity;BME280_pressure;Samples;Min_cycle;Max_cycle;Signal;HPM_P1;HPM_P2
2022/06/10 00:00:42;;;;;;;3.10;1.73;;;12.10;21.20;;;;;;5124333;27;34272;-77
2022/06/10 00:03:10;;;;;;;2.95;1.70;;;12.10;21.40;;;;;;5089407;27;34122;-77
2022/06/10 00:05:37;;;;;;;6.10;1.80;;;12.00;21.30;;;;;;5089847;27;34434;-78
2022/06/10 00:08:05;;;;;;;1.48;1.38;;;12.00;21.40;;;;;;5106797;27;35582;-78
2022/06/10 00:10:31;;;;;;;1.77;1.58;;;12.00;21.50;;;;;;5090925;27;34444;-78
2022/06/10 00:12:57;;;;;;;2.35;1.80;;;12.00;21.40;;;;;;5106746;27;34433;-77
2022/06/10 00:15:23;;;;;;;2.00;1.75;;;11.90;21.50;;;;;;5105798;27;34318;-78
2022/06/10 00:17:49;;;;;;;2.95;1.75;;;11.90;21.70;;;;;;5105914;27;35537;-77
2022/06/10 00:20:18;;;;;;;6.95;1.75;;;11.80;21.60;;;;;;5105754;27;34144;-76
2022/06/10 00:22:44;;;;;;;3.15;1.50;;;11.80;21.70;;;;;;5124813;27;34327;-76
2022/06/10 00:25:11;;;;;;;3.58;1.95;;;11.80;21.80;;;;;;5092333;27;34224;-77
2022/06/10 00:27:37;;;;;;;1.98;1.77;;;11.70;22.00;;;;;;5108758;27;35773;-77
2022/06/10 00:30:05;;;;;;;2.75;1.70;;;11.70;22.10;;;;;;5108641;27;34368;-78
2022/06/10 00:32:31;;;;;;;5.68;1.67;;;11.70;22.10;;;;;;5092186;27;34219;-77
2022/06/10 00:34:56;;;;;;;7.65;1.98;;;11.60;22.20;;;;;;5128145;27;34221;-77
2022/06/10 00:37:22;;;;;;;2.20;1.77;;;11.60;22.00;;;;;;5091741;27;36267;-77
2022/06/10 00:39:48;;;;;;;1.70;1.60;;;11.60;22.00;;;;;;5110021;27;34167;-78
2022/06/10 00:42:15;;;;;;;4.30;1.60;;;11.50;22.10;;;;;;5110109;27;34450;-77
2022/06/10 00:44:45;;;;;;;1.48;1.38;;;11.50;22.20;;;;;;5127455;27;34432;-77
2022/06/10 00:47:17;;;;;;;4.85;1.67;;;11.50;22.40;;;;;;5093190;27;35602;-78
2022/06/10 00:49:52;;;;;;;4.90;1.67;;;11.50;22.60;;;;;;5092662;27;33618;-78
2022/06/10 00:52:28;;;;;;;2.25;1.63;;;11.40;22.50;;;;;;5128676;27;34529;-78
2022/06/10 00:54:55;;;;;;;2.28;1.50;;;11.40;22.70;;;;;;5129795;27;34059;-78
2022/06/10 00:57:27;;;;;;;2.88;1.65;;;11.30;22.30;;;;;;5109731;27;36066;-79
2022/06/10 00:59:59;;;;;;;1.80;1.70;;;11.30;22.60;;;;;;5093159;27;34098;-78
2022/06/10 01:02:28;;;;;;;2.70;2.30;;;11.30;22.70;;;;;;5128608;27;34070;-78
2022/06/10 01:04:55;;;;;;;1.77;1.67;;;11.20;22.50;;;;;;5093916;27;34619;-78
2022/06/10 01:07:27;;;;;;;1.60;1.50;;;11.20;22.70;;;;;;5092844;27;36497;-79
2022/06/10 01:09:54;;;;;;;3.90;1.70;;;11.20;23.00;;;;;;5111881;27;34335;-79
2022/06/10 01:12:50;;;;;;;1.70;1.60;;;11.10;22.90;;;;;;5111293;27;34239;-79
2022/06/10 01:15:37;;;;;;;5.00;1.70;;;11.10;24.00;;;;;;5112176;27;34137;-79
2022/06/10 01:18:25;;;;;;;1.67;1.58;;;11.10;23.80;;;;;;5129740;27;33984;-79
2022/06/10 01:21:21;;;;;;;1.58;1.48;;;11.00;22.90;;;;;;5096731;27;34140;-79
2022/06/10 01:24:24;;;;;;;2.33;1.70;;;11.00;24.20;;;;;;5096381;27;34303;-78
2022/06/10 01:30:14;;;;;;;1.80;1.70;;;10.90;24.50;;;;;;5110713;27;34308;-79
2022/06/10 01:33:03;;;;;;;5.43;1.88;;;10.90;24.60;;;;;;5111351;27;34302;-79
2022/06/10 01:35:46;;;;;;;5.20;1.65;;;10.80;23.70;;;;;;5094648;27;34253;-79
2022/06/10 01:38:36;;;;;;;2.13;1.50;;;10.80;23.70;;;;;;5111876;27;34490;-79
2022/06/10 01:41:14;;;;;;;3.88;1.65;;;10.70;23.70;;;;;;5094128;27;35945;-79
2022/06/10 01:44:15;;;;;;;2.33;1.38;;;10.70;23.40;;;;;;5112090;27;34109;-80
2022/06/10 01:46:48;;;;;;;2.30;1.65;;;10.60;24.40;;;;;;5098265;27;34135;-80
2022/06/10 01:49:24;;;;;;;1.85;1.52;;;10.60;23.30;;;;;;5130477;27;34260;-79
2022/06/10 01:52:03;;;;;;;2.05;1.60;;;10.50;23.20;;;;;;5111836;27;35985;-79
2022/06/10 01:54:48;;;;;;;3.90;1.60;;;10.50;23.70;;;;;;5111696;27;34378;-79
2022/06/10 01:57:25;;;;;;;4.45;1.63;;;10.50;24.30;;;;;;5110699;27;34295;-79
2022/06/10 01:59:59;;;;;;;1.92;1.73;;;10.40;23.60;;;;;;5092331;27;34442;-79
2022/06/10 02:02:32;;;;;;;1.90;1.70;;;10.30;23.40;;;;;;5092582;27;36780;-79
2022/06/10 02:05:04;;;;;;;1.85;1.48;;;10.30;23.30;;;;;;5108645;27;34175;-79
2022/06/10 02:07:36;;;;;;;2.22;1.63;;;10.30;23.60;;;;;;5109736;27;34219;-80
2022/06/10 02:10:09;;;;;;;1.85;1.60;;;10.30;23.60;;;;;;5093643;27;34569;-80
2022/06/10 02:12:42;;;;;;;2.00;1.63;;;10.20;23.90;;;;;;5110446;27;35138;-79
2022/06/10 02:15:19;;;;;;;2.03;1.60;;;10.20;24.00;;;;;;5110606;27;34125;-79
2022/06/10 02:17:50;;;;;;;2.58;1.70;;;10.20;24.50;;;;;;5095286;27;34525;-79
2022/06/10 02:20:22;;;;;;;5.25;1.73;;;10.20;24.70;;;;;;5077958;27;34015;-79
2022/06/10 02:22:49;;;;;;;2.28;2.00;;;10.20;24.60;;;;;;5092649;27;35889;-80
2022/06/10 02:25:22;;;;;;;1.85;1.73;;;10.20;24.50;;;;;;5128445;27;34104;-79
2022/06/10 02:27:53;;;;;;;1.48;1.38;;;10.20;24.70;;;;;;5127731;27;34199;-80
2022/06/10 02:30:26;;;;;;;1.58;1.48;;;10.20;24.70;;;;;;5092080;27;34291;-79
2022/06/10 02:32:54;;;;;;;3.05;1.70;;;10.20;24.80;;;;;;5108776;27;36356;-80
2022/06/10 02:35:20;;;;;;;1.85;1.75;;;10.10;24.50;;;;;;5109739;27;34216;-80
2022/06/10 02:38:09;;;;;;;1.90;1.70;;;10.20;24.60;;;;;;5092372;27;34104;-80
2022/06/10 02:40:56;;;;;;;3.05;1.38;;;10.20;25.90;;;;;;5108721;27;34425;-79
2022/06/10 02:43:41;;;;;;;2.13;1.70;;;10.10;25.00;;;;;;5108414;27;35922;-80
2022/06/10 02:46:29;;;;;;;2.55;1.70;;;10.10;25.90;;;;;;5108772;27;34119;-80
2022/06/10 02:49:13;;;;;;;2.17;1.80;;;10.10;25.30;;;;;;5094813;27;34254;-81
2022/06/10 02:51:39;;;;;;;4.13;1.70;;;10.10;25.10;;;;;;5126913;27;34085;-80
2022/06/10 02:54:12;;;;;;;1.63;1.52;;;10.10;24.80;;;;;;5109910;27;35844;-80
2022/06/10 02:56:38;;;;;;;1.50;1.40;;;10.10;24.70;;;;;;5092412;27;33991;-81
2022/06/10 03:02:16;;;;;;;2.42;1.70;;;10.10;24.70;;;;;;5127985;27;34042;-80
2022/06/10 03:05:02;;;;;;;1.83;1.70;;;10.10;25.80;;;;;;5109039;27;36430;-80
2022/06/10 03:08:03;;;;;;;2.25;1.60;;;10.10;25.40;;;;;;5092542;27;34199;-80
2022/06/10 03:10:56;;;;;;;1.85;1.73;;;10.10;26.80;;;;;;5115068;27;34223;-80
2022/06/10 03:13:45;;;;;;;1.60;1.50;;;10.10;26.20;;;;;;5109756;27;34499;-80
2022/06/10 03:16:30;;;;;;;1.92;1.75;;;10.10;26.60;;;;;;5110246;27;34293;-80
2022/06/10 03:19:33;;;;;;;1.63;1.52;;;10.20;26.70;;;;;;5092710;27;34036;-80
2022/06/10 03:22:21;;;;;;;3.33;1.58;;;10.20;27.40;;;;;;5097423;27;34142;-81
2022/06/10 03:25:11;;;;;;;1.63;1.52;;;10.20;26.60;;;;;;5109727;27;34420;-80
2022/06/10 03:27:48;;;;;;;2.55;1.80;;;10.30;26.00;;;;;;5126432;27;34104;-80
2022/06/10 03:30:18;;;;;;;2.25;1.83;;;10.30;25.80;;;;;;5091419;27;34328;-80
2022/06/10 03:33:01;;;;;;;2.85;1.73;;;10.40;25.30;;;;;;5108428;27;34227;-80
2022/06/10 03:35:34;;;;;;;2.00;1.70;;;10.40;25.50;;;;;;5108002;27;34211;-80
2022/06/10 03:38:03;;;;;;;2.13;1.80;;;10.50;25.80;;;;;;5108484;27;35672;-79
2022/06/10 03:40:31;;;;;;;1.90;1.63;;;10.50;25.50;;;;;;5126565;27;34153;-79
2022/06/10 03:43:00;;;;;;;5.63;2.05;;;10.60;25.60;;;;;;5091979;27;34263;-80
2022/06/10 03:45:40;;;;;;;3.72;2.00;;;10.70;25.70;;;;;;5109314;27;34319;-80
2022/06/10 03:48:06;;;;;;;2.10;1.85;;;10.80;26.10;;;;;;5126864;27;34263;-80
2022/06/10 03:50:38;;;;;;;2.08;1.90;;;10.80;25.40;;;;;;5091409;27;34583;-80
2022/06/10 03:53:05;;;;;;;2.08;1.92;;;10.90;25.60;;;;;;5126062;27;34422;-80
2022/06/10 03:55:31;;;;;;;3.75;2.22;;;10.90;25.40;;;;;;5090786;27;34395;-80
2022/06/10 03:57:57;;;;;;;3.33;2.00;;;10.90;25.40;;;;;;5128100;27;34215;-79
2022/06/10 04:00:26;;;;;;;3.70;1.70;;;11.00;25.40;;;;;;5094848;27;33816;-79
2022/06/10 04:02:52;;;;;;;3.78;1.90;;;11.10;25.50;;;;;;5111795;27;34251;-80
2022/06/10 04:05:19;;;;;;;2.65;1.90;;;11.10;25.50;;;;;;5111894;27;34567;-79
2022/06/10 04:07:46;;;;;;;1.70;1.60;;;11.20;25.50;;;;;;5112167;27;35631;-80
2022/06/10 04:10:16;;;;;;;3.80;1.75;;;11.20;25.50;;;;;;5112244;27;34332;-80
2022/06/10 04:12:42;;;;;;;5.90;2.10;;;11.30;25.80;;;;;;5111139;27;33919;-80
2022/06/10 04:15:10;;;;;;;2.28;1.85;;;11.40;25.60;;;;;;5112220;27;34155;-80
2022/06/10 04:17:36;;;;;;;2.75;2.03;;;11.40;25.50;;;;;;5130366;27;34155;-80
2022/06/10 04:20:03;;;;;;;2.42;1.83;;;11.50;25.60;;;;;;5112142;27;34164;-79
2022/06/10 04:22:30;;;;;;;2.00;1.80;;;11.50;25.60;;;;;;5078380;27;34229;-79
2022/06/10 04:24:56;;;;;;;2.97;1.80;;;11.60;25.60;;;;;;5079065;27;34462;-80
2022/06/10 04:27:22;;;;;;;1.95;1.58;;;11.70;25.60;;;;;;5094833;27;35792;-80
2022/06/10 04:29:48;;;;;;;1.95;1.75;;;11.70;25.70;;;;;;5111393;27;33622;-80
2022/06/10 04:32:14;;;;;;;2.85;1.77;;;11.80;25.70;;;;;;5095743;27;34220;-80
2022/06/10 04:34:40;;;;;;;3.72;2.00;;;11.80;25.70;;;;;;5078421;27;34421;-79
2022/06/10 04:37:06;;;;;;;5.53;2.20;;;11.90;25.70;;;;;;5095036;27;35832;-80
2022/06/10 04:39:32;;;;;;;2.10;2.00;;;11.90;25.60;;;;;;5130341;27;34143;-79
2022/06/10 04:41:58;;;;;;;2.85;1.77;;;12.00;25.70;;;;;;5130612;27;34138;-80
2022/06/10 04:44:24;;;;;;;6.75;2.20;;;12.10;25.80;;;;;;5094539;27;34374;-80
2022/06/10 04:46:50;;;;;;;3.53;1.70;;;12.10;25.80;;;;;;5094915;27;36468;-80
2022/06/10 04:49:16;;;;;;;3.20;1.77;;;12.20;25.90;;;;;;5111898;27;34071;-79
2022/06/10 04:51:41;;;;;;;2.03;1.80;;;12.20;25.80;;;;;;5094826;27;34220;-80
2022/06/10 04:54:08;;;;;;;2.60;1.95;;;12.30;25.80;;;;;;5130267;27;34228;-79
2022/06/10 04:56:35;;;;;;;2.70;2.08;;;12.40;25.90;;;;;;5110739;27;35550;-80
2022/06/10 04:59:01;;;;;;;4.13;1.77;;;12.40;26.50;;;;;;5111322;27;34222;-80
2022/06/10 05:01:27;;;;;;;4.60;2.10;;;12.50;25.80;;;;;;5130027;27;34220;-80
2022/06/10 05:03:53;;;;;;;4.85;2.05;;;12.50;25.80;;;;;;5078125;27;34568;-80
2022/06/10 05:06:19;;;;;;;3.53;1.80;;;12.60;25.50;;;;;;5095468;27;34424;-80
2022/06/10 05:08:45;;;;;;;4.50;2.30;;;12.60;25.50;;;;;;5110675;27;34136;-80
2022/06/10 05:11:11;;;;;;;3.65;1.75;;;12.60;25.50;;;;;;5112270;27;34204;-80
2022/06/10 05:13:37;;;;;;;5.15;2.10;;;12.70;25.50;;;;;;5094720;27;34549;-81
2022/06/10 05:16:04;;;;;;;2.78;2.10;;;12.70;25.60;;;;;;5073625;28;35575;-80
2022/06/10 05:18:31;;;;;;;3.47;2.17;;;12.80;25.70;;;;;;5098244;27;34382;-80
2022/06/10 05:20:57;;;;;;;4.00;2.17;;;12.80;25.60;;;;;;5111287;27;34400;-80
2022/06/10 05:23:25;;;;;;;3.22;2.28;;;12.90;25.70;;;;;;5127199;27;34267;-80
2022/06/10 05:25:52;;;;;;;2.85;2.00;;;12.90;25.50;;;;;;5075184;28;36604;-80
2022/06/10 05:28:19;;;;;;;4.30;2.10;;;13.00;25.60;;;;;;5111096;27;34122;-80
2022/06/10 05:30:46;;;;;;;4.10;2.25;;;13.10;25.60;;;;;;5111690;27;34170;-79
2022/06/10 05:33:13;;;;;;;3.95;2.38;;;13.10;26.40;;;;;;5130858;27;34259;-79
2022/06/10 05:35:41;;;;;;;4.72;2.17;;;13.20;25.70;;;;;;5110855;27;35675;-80
2022/06/10 05:38:07;;;;;;;3.35;2.30;;;13.30;25.80;;;;;;5099975;27;34172;-80
2022/06/10 05:40:34;;;;;;;3.50;2.50;;;13.40;25.80;;;;;;5111466;27;34213;-80
2022/06/10 05:43:00;;;;;;;2.80;2.30;;;13.40;25.80;;;;;;5111521;27;34420;-81
2022/06/10 05:45:26;;;;;;;2.72;2.30;;;13.50;25.90;;;;;;5110901;27;35706;-80
2022/06/10 05:47:55;;;;;;;3.60;2.40;;;13.60;25.70;;;;;;5111813;27;34306;-80
2022/06/10 05:50:28;;;;;;;3.30;2.42;;;13.70;25.80;;;;;;5129421;27;34245;-79
2022/06/10 05:52:55;;;;;;;3.15;2.55;;;13.80;25.80;;;;;;5111041;27;34437;-79
2022/06/10 05:55:22;;;;;;;2.78;2.22;;;13.90;25.60;;;;;;5110860;27;36404;-79
2022/06/10 05:57:50;;;;;;;4.15;2.15;;;14.00;25.70;;;;;;5129994;27;34136;-80
2022/06/10 06:00:22;;;;;;;2.58;2.35;;;14.00;25.60;;;;;;5112469;27;34740;-79
2022/06/10 06:02:48;;;;;;;2.67;2.28;;;14.10;25.60;;;;;;5112517;27;34220;-80
2022/06/10 06:05:14;;;;;;;2.10;1.90;;;14.20;25.20;;;;;;5111016;27;36264;-80
2022/06/10 06:07:44;;;;;;;2.40;2.20;;;14.30;25.10;;;;;;5111817;27;34227;-80
2022/06/10 06:10:13;;;;;;;3.50;2.15;;;14.40;25.00;;;;;;5110706;27;34090;-81
2022/06/10 06:12:40;;;;;;;4.28;2.60;;;14.50;24.80;;;;;;5093600;27;34688;-82
2022/06/10 06:15:06;;;;;;;2.78;2.38;;;14.60;24.60;;;;;;5130024;27;34207;-79
2022/06/10 06:17:32;;;;;;;2.42;2.00;;;14.70;24.40;;;;;;5112762;27;34140;-80
2022/06/10 06:19:58;;;;;;;2.17;1.98;;;14.90;24.20;;;;;;5095130;27;34336;-81
2022/06/10 06:22:24;;;;;;;3.67;2.28;;;15.20;23.70;;;;;;5110697;27;34160;-80
2022/06/10 06:24:50;;;;;;;2.35;2.15;;;15.60;23.30;;;;;;5092420;28;35711;-81
2022/06/10 06:27:16;;;;;;;3.88;2.13;;;16.00;22.90;;;;;;5103452;27;34261;-82
2022/06/10 06:29:43;;;;;;;4.20;1.85;;;16.20;22.10;;;;;;5110898;27;34139;-79
2022/06/10 06:32:10;;;;;;;3.95;2.00;;;16.40;21.70;;;;;;5110311;27;34170;-79
2022/06/10 06:34:38;;;;;;;2.10;2.00;;;16.50;21.60;;;;;;5112314;27;36016;-79
2022/06/10 06:37:05;;;;;;;2.05;1.95;;;16.50;21.40;;;;;;5111533;27;34288;-79
2022/06/10 06:39:31;;;;;;;2.25;2.05;;;16.60;21.50;;;;;;5111564;27;33750;-78
2022/06/10 06:41:58;;;;;;;3.00;2.10;;;17.00;21.50;;;;;;5112827;27;34466;-81
2022/06/10 06:44:24;;;;;;;2.20;1.85;;;17.50;21.00;;;;;;5112381;27;35463;-80
2022/06/10 06:46:49;;;;;;;2.30;2.10;;;18.10;19.90;;;;;;5129951;27;34088;-80
2022/06/10 06:49:19;;;;;;;2.40;1.90;;;18.80;19.00;;;;;;5111812;27;34327;-79
2022/06/10 06:51:46;;;;;;;2.40;2.20;;;19.30;17.90;;;;;;5095389;27;34604;-80
2022/06/10 06:54:12;;;;;;;2.03;1.90;;;19.60;17.20;;;;;;5112218;27;35768;-79
2022/06/10 06:56:38;;;;;;;3.90;2.00;;;20.20;16.40;;;;;;5111442;27;34264;-83
2022/06/10 06:59:06;;;;;;;2.28;2.08;;;20.60;16.00;;;;;;5124357;27;33646;-80
2022/06/10 07:01:32;;;;;;;2.90;2.10;;;20.90;15.70;;;;;;5091410;28;34495;-80
2022/06/10 07:03:58;;;;;;;3.00;2.30;;;21.00;15.40;;;;;;5110362;27;35908;-82
2022/06/10 07:06:24;;;;;;;3.80;2.00;;;21.40;15.20;;;;;;5090482;28;34360;-81
2022/06/10 07:08:50;;;;;;;3.28;2.20;;;22.00;14.80;;;;;;5110161;27;34455;-81
2022/06/10 07:11:17;;;;;;;2.80;2.20;;;22.50;14.10;;;;;;5093818;27;34134;-80
2022/06/10 07:13:43;;;;;;;5.30;2.42;;;23.10;13.60;;;;;;5110641;27;35840;-81
2022/06/10 07:16:09;;;;;;;4.57;1.80;;;23.70;12.80;;;;;;5094521;27;34058;-78
2022/06/10 07:18:35;;;;;;;2.90;1.88;;;24.10;12.40;;;;;;5107893;27;34743;-78
2022/06/10 07:21:01;;;;;;;3.50;1.88;;;24.10;12.10;;;;;;5108595;27;34405;-78
2022/06/10 07:23:27;;;;;;;2.53;1.90;;;24.10;12.20;;;;;;5090365;27;36227;-80
2022/06/10 07:25:54;;;;;;;3.42;1.83;;;24.00;12.30;;;;;;5109471;27;34433;-78
2022/06/10 07:28:21;;;;;;;2.45;1.70;;;24.00;12.30;;;;;;5104384;28;34209;-78
2022/06/10 07:30:47;;;;;;;3.92;1.85;;;23.90;12.50;;;;;;5087466;28;34153;-78
2022/06/10 07:33:13;;;;;;;3.67;1.45;;;23.80;12.60;;;;;;5102938;28;35876;-78
2022/06/10 07:35:40;;;;;;;2.35;1.65;;;23.80;12.80;;;;;;5086164;28;34195;-78
2022/06/10 07:38:07;;;;;;;1.85;1.63;;;23.80;12.80;;;;;;5069310;28;34155;-78
2022/06/10 07:43:18;;;;;;;3.40;1.60;;;23.40;12.20;;;;;;5075940;28;34188;-81
2022/06/10 07:45:45;;;;;;;1.85;1.70;;;23.40;13.10;;;;;;5103078;27;34240;-77
2022/06/10 07:48:12;;;;;;;2.20;1.38;;;23.30;13.10;;;;;;5106959;27;34050;-78
2022/06/10 07:50:40;;;;;;;4.32;1.58;;;23.30;13.10;;;;;;5125071;27;34103;-78
2022/06/10 07:53:07;;;;;;;2.22;1.77;;;23.40;13.10;;;;;;5106754;27;36847;-78
2022/06/10 07:55:34;;;;;;;2.55;1.60;;;23.50;13.20;;;;;;5103014;27;34453;-77
2022/06/10 07:58:00;;;;;;;2.80;1.65;;;23.50;13.20;;;;;;5091287;28;34233;-78
2022/06/10 08:00:27;;;;;;;3.08;1.65;;;23.50;13.10;;;;;;5098971;27;34021;-77
2022/06/10 08:02:53;;;;;;;3.00;1.70;;;23.50;13.20;;;;;;5088950;27;35910;-76
2022/06/10 08:05:19;;;;;;;3.05;1.40;;;23.40;13.10;;;;;;5088801;27;34287;-77
2022/06/10 08:07:46;;;;;;;2.38;1.63;;;23.50;13.70;;;;;;5106548;27;34346;-76
2022/06/10 08:10:22;;;;;;;2.75;1.38;;;23.50;13.00;;;;;;5086076;28;34573;-77
2022/06/10 08:12:48;;;;;;;3.92;1.67;;;23.60;11.80;;;;;;5064353;27;35736;-78
2022/06/10 08:15:15;;;;;;;2.78;1.50;;;23.60;12.80;;;;;;5085317;28;34205;-77
2022/06/10 08:17:41;;;;;;;2.00;1.40;;;23.50;12.50;;;;;;5089292;27;34269;-78
2022/06/10 08:20:12;;;;;;;2.85;1.35;;;23.50;12.50;;;;;;5089283;27;34473;-77
2022/06/10 08:22:38;;;;;;;3.03;1.63;;;23.40;12.20;;;;;;5105412;27;35625;-78
2022/06/10 08:25:08;;;;;;;5.53;1.70;;;23.30;12.40;;;;;;5105645;27;34177;-78
2022/06/10 08:27:34;;;;;;;1.55;1.45;;;23.20;12.20;;;;;;5071994;27;34132;-76
2022/06/10 08:30:01;;;;;;;4.93;1.80;;;23.20;13.10;;;;;;5124179;27;34276;-78
2022/06/10 08:32:27;;;;;;;3.40;1.42;;;23.40;12.70;;;;;;5105402;27;35837;-77
2022/06/10 08:34:53;;;;;;;3.63;1.23;;;23.50;12.60;;;;;;5105588;27;34222;-77
2022/06/10 08:37:20;;;;;;;1.50;1.02;;;23.60;12.00;;;;;;5101891;28;34251;-77
2022/06/10 08:39:46;;;;;;;5.55;1.85;;;23.60;11.60;;;;;;5087352;27;34399;-79
2022/06/10 08:42:35;;;;;;;8.02;1.77;;;23.60;11.50;;;;;;5099077;27;35546;-77
2022/06/10 08:45:17;;;;;;;3.88;1.30;;;23.60;10.00;;;;;;5105782;28;34116;-76
2022/06/10 08:48:10;;;;;;;2.78;1.30;;;23.70;9.80;;;;;;5080122;27;34232;-81
2022/06/10 08:51:04;;;;;;;2.35;1.50;;;23.80;10.30;;;;;;5113021;27;34156;-79
2022/06/10 08:53:59;;;;;;;6.30;1.50;;;23.80;6.80;;;;;;5096508;27;34167;-78
2022/06/10 08:56:33;;;;;;;2.85;1.30;;;23.70;7.90;;;;;;5096466;27;34477;-78
2022/06/10 08:59:13;;;;;;;3.10;1.40;;;23.60;9.40;;;;;;5092624;27;34357;-77
2022/06/10 09:01:55;;;;;;;6.05;1.60;;;23.50;7.80;;;;;;5110316;27;34743;-77
2022/06/10 09:04:29;;;;;;;4.30;1.42;;;23.50;8.20;;;;;;5109255;27;36058;-77
2022/06/10 09:07:00;;;;;;;5.03;1.52;;;23.50;10.00;;;;;;5127490;27;34284;-77
2022/06/10 09:09:27;;;;;;;3.88;1.30;;;23.40;10.10;;;;;;5126135;27;34259;-76
2022/06/10 09:12:15;;;;;;;3.33;1.50;;;23.40;10.80;;;;;;5108920;27;34088;-76
2022/06/10 09:14:42;;;;;;;3.85;1.55;;;23.50;8.40;;;;;;5088716;27;35676;-77
2022/06/10 09:17:33;;;;;;;7.07;1.30;;;23.60;10.40;;;;;;5109440;27;34031;-77
2022/06/10 09:20:23;;;;;;;3.00;1.23;;;23.60;6.50;;;;;;5084911;28;34382;-76
2022/06/10 09:22:55;;;;;;;3.88;1.35;;;23.70;6.70;;;;;;5056703;28;34104;-75
2022/06/10 09:25:32;;;;;;;4.50;1.52;;;23.80;9.20;;;;;;5106830;28;34554;-76
2022/06/10 09:28:00;;;;;;;6.88;1.40;;;23.80;8.10;;;;;;5088253;28;34035;-77
2022/06/10 09:30:46;;;;;;;3.50;1.42;;;23.80;9.00;;;;;;5076926;28;34353;-77
2022/06/10 09:33:32;;;;;;;3.60;1.40;;;24.10;7.50;;;;;;5085868;27;34228;-76
2022/06/10 09:36:09;;;;;;;5.93;1.50;;;24.10;5.80;;;;;;5109273;27;35521;-78
2022/06/10 09:38:49;;;;;;;5.70;1.70;;;24.30;6.50;;;;;;5130648;27;34291;-81
2022/06/10 09:41:39;;;;;;;3.40;1.33;;;24.30;7.20;;;;;;5108753;27;34273;-77
2022/06/10 09:44:30;;;;;;;8.70;1.50;;;24.40;4.30;;;;;;5121879;27;34575;-77
2022/06/10 09:47:14;;;;;;;4.85;1.30;;;24.50;6.40;;;;;;5113501;27;34453;-78
2022/06/10 09:50:04;;;;;;;6.28;1.45;;;24.70;5.40;;;;;;5093734;27;34329;-80
2022/06/10 09:52:39;;;;;;;3.97;1.23;;;25.00;3.50;;;;;;5108179;27;34335;-75
2022/06/10 09:55:26;;;;;;;7.03;1.40;;;25.20;5.80;;;;;;5108101;27;34530;-77
2022/06/10 09:58:07;;;;;;;3.90;1.25;;;25.30;2.20;;;;;;5110173;27;35909;-77
2022/06/10 10:00:51;;;;;;;3.25;1.33;;;25.40;4.80;;;;;;5110410;27;34389;-77
2022/06/10 10:03:57;;;;;;;4.07;1.25;;;25.50;3.90;;;;;;5092795;27;34208;-77
2022/06/10 10:06:46;;;;;;;2.85;1.13;;;25.50;1.00;;;;;;5083911;27;34297;-76
2022/06/10 10:09:42;;;;;;;2.75;1.05;;;25.60;2.90;;;;;;5109297;27;35579;-81
2022/06/10 10:12:24;;;;;;;1.98;0.93;;;25.80;1.00;;;;;;5100215;27;34171;-78
2022/06/10 10:15:11;;;;;;;3.97;1.17;;;26.00;3.60;;;;;;5093248;27;34193;-80
2022/06/10 10:18:09;;;;;;;4.95;1.30;;;26.10;2.20;;;;;;5112060;27;34068;-78
2022/06/10 10:21:02;;;;;;;2.35;1.00;;;26.20;1.10;;;;;;5080666;27;35732;-77
2022/06/10 10:23:34;;;;;;;4.18;1.10;;;26.20;1.00;;;;;;5110790;27;34574;-78
2022/06/10 10:26:04;;;;;;;4.45;1.40;;;26.10;2.20;;;;;;5127727;27;34317;-77
2022/06/10 10:28:35;;;;;;;3.38;1.10;;;26.00;4.70;;;;;;5125369;27;34133;-75
2022/06/10 10:31:25;;;;;;;2.45;1.20;;;25.90;3.20;;;;;;5125580;27;35343;-76
2022/06/10 10:33:51;;;;;;;3.53;1.20;;;26.00;3.50;;;;;;5108637;27;34362;-77
2022/06/10 10:36:38;;;;;;;2.75;0.77;;;26.00;4.70;;;;;;5093969;27;34157;-77
2022/06/10 10:39:23;;;;;;;6.93;1.10;;;26.10;2.10;;;;;;5108535;27;34294;-78
2022/06/10 10:41:50;;;;;;;2.60;1.00;;;26.20;1.90;;;;;;5091302;27;36920;-74
2022/06/10 10:44:35;;;;;;;4.47;1.20;;;26.30;3.90;;;;;;5108249;27;34184;-79
2022/06/10 10:47:17;;;;;;;4.13;0.85;;;26.50;2.90;;;;;;5091807;27;34171;-77
2022/06/10 10:49:51;;;;;;;3.15;1.08;;;26.80;1.00;;;;;;5088884;28;34717;-79
2022/06/10 10:52:40;;;;;;;3.40;1.10;;;26.90;1.00;;;;;;5073452;28;35476;-78
2022/06/10 10:55:33;;;;;;;2.38;0.90;;;26.70;1.00;;;;;;5107849;28;34171;-77
2022/06/10 10:58:13;;;;;;;1.95;0.90;;;26.60;1.00;;;;;;5092774;27;34323;-79
2022/06/10 11:00:44;;;;;;;3.08;1.00;;;26.60;1.00;;;;;;5107855;27;34203;-76
2022/06/10 11:03:32;;;;;;;3.58;0.85;;;26.60;1.00;;;;;;5074221;27;35666;-80
2022/06/10 11:06:02;;;;;;;3.33;0.90;;;26.70;1.00;;;;;;5093361;27;34204;-75
2022/06/10 11:08:32;;;;;;;3.10;0.95;;;26.70;1.00;;;;;;5126771;27;34305;-78
2022/06/10 11:11:21;;;;;;;2.10;0.73;;;26.70;1.00;;;;;;5109490;27;34379;-76
2022/06/10 11:13:54;;;;;;;5.90;0.93;;;26.80;1.00;;;;;;5126368;27;34189;-78
2022/06/10 11:16:40;;;;;;;3.53;0.90;;;26.80;1.00;;;;;;5091644;27;34116;-80
2022/06/10 11:19:17;;;;;;;3.63;1.10;;;26.80;1.00;;;;;;5109467;27;34121;-78
2022/06/10 11:21:52;;;;;;;3.30;1.40;;;26.90;1.00;;;;;;5108828;27;34251;-78
2022/06/10 11:24:24;;;;;;;3.53;0.88;;;27.00;1.00;;;;;;5108299;27;35589;-76
2022/06/10 11:26:53;;;;;;;4.13;1.10;;;26.90;1.00;;;;;;5108639;27;34196;-77
2022/06/10 11:29:21;;;;;;;3.50;1.00;;;26.70;1.00;;;;;;5109058;27;34106;-78
2022/06/10 11:31:52;;;;;;;4.30;0.95;;;26.50;1.40;;;;;;5109749;27;34021;-76
2022/06/10 11:34:35;;;;;;;4.68;1.05;;;26.70;1.00;;;;;;5127338;27;35356;-77
2022/06/10 11:37:22;;;;;;;4.53;0.98;;;26.60;1.00;;;;;;5125977;27;34270;-78
2022/06/10 11:40:01;;;;;;;2.75;1.00;;;26.60;1.00;;;;;;5125285;27;34169;-76
2022/06/10 11:42:32;;;;;;;3.30;1.05;;;26.60;1.00;;;;;;5090125;27;34139;-75
2022/06/10 11:45:16;;;;;;;1.92;0.95;;;26.60;1.00;;;;;;5107740;27;35662;-78
2022/06/10 11:47:50;;;;;;;3.28;0.70;;;26.50;1.00;;;;;;5106558;27;34377;-77
2022/06/10 11:50:35;;;;;;;4.03;0.90;;;26.50;1.00;;;;;;5107669;27;34471;-75
2022/06/10 11:53:25;;;;;;;3.85;0.85;;;26.40;1.00;;;;;;5108124;27;34044;-76
2022/06/10 11:59:42;;;;;;;3.63;1.10;;;26.30;1.00;;;;;;5093045;27;35487;-81
2022/06/10 12:01:33;;;;;;;5.18;0.90;;;26.30;1.00;;;;;;5090018;28;34200;-76
2022/06/10 12:04:07;;;;;;;3.97;1.05;;;26.40;1.00;;;;;;5105606;28;34309;-76
2022/06/10 12:06:41;;;;;;;4.18;1.00;;;26.50;1.00;;;;;;5087274;28;35517;-75
2022/06/10 12:09:32;;;;;;;3.50;0.98;;;26.60;1.00;;;;;;5103399;28;34085;-77
2022/06/10 12:12:04;;;;;;;6.53;1.30;;;26.50;1.00;;;;;;5105336;28;34389;-76
2022/06/10 12:14:37;;;;;;;2.95;1.30;;;26.50;1.00;;;;;;5088693;28;34157;-78
2022/06/10 12:17:19;;;;;;;2.67;1.00;;;26.60;1.00;;;;;;5088431;28;35988;-79
2022/06/10 12:19:51;;;;;;;1.05;0.77;;;26.50;1.00;;;;;;5107955;28;34392;-76
2022/06/10 12:22:17;;;;;;;2.38;0.88;;;26.50;1.00;;;;;;5107690;28;34157;-77
2022/06/10 12:24:47;;;;;;;2.40;1.00;;;26.50;1.00;;;;;;5091024;28;34499;-77
2022/06/10 12:27:24;;;;;;;3.78;1.00;;;26.50;1.00;;;;;;5108224;28;35311;-77
2022/06/10 12:30:02;;;;;;;3.30;1.00;;;26.60;1.00;;;;;;5106100;28;34189;-76
2022/06/10 12:32:45;;;;;;;3.50;1.17;;;26.70;1.00;;;;;;5106739;28;34295;-75
2022/06/10 12:35:19;;;;;;;2.65;1.00;;;26.80;1.00;;;;;;5107521;28;34104;-76
2022/06/10 12:37:51;;;;;;;3.03;0.80;;;26.90;1.00;;;;;;5107246;27;35995;-75
2022/06/10 12:40:27;;;;;;;4.30;1.00;;;26.70;1.00;;;;;;5092656;27;34216;-75
2022/06/10 12:42:58;;;;;;;2.38;0.65;;;26.70;1.00;;;;;;5129286;27;34460;-75
2022/06/10 12:45:39;;;;;;;4.03;1.00;;;26.70;1.00;;;;;;5102327;27;34337;-76
2022/06/10 12:48:15;;;;;;;1.48;0.90;;;26.50;1.00;;;;;;5129400;27;34473;-77
2022/06/10 12:51:01;;;;;;;3.15;1.15;;;26.10;1.00;;;;;;5128727;27;34026;-77
2022/06/10 12:53:55;;;;;;;3.97;0.98;;;26.00;1.00;;;;;;5093390;27;34080;-78
2022/06/10 12:56:26;;;;;;;4.22;1.27;;;25.90;1.00;;;;;;5111878;27;34306;-77
2022/06/10 12:59:11;;;;;;;4.63;0.88;;;25.80;1.20;;;;;;5093559;27;35739;-78
2022/06/10 13:01:45;;;;;;;7.40;1.10;;;25.80;1.00;;;;;;5129054;27;34093;-77
2022/06/10 13:04:32;;;;;;;1.27;0.90;;;25.80;1.00;;;;;;5128599;27;34301;-77
2022/06/10 13:07:01;;;;;;;2.03;0.95;;;25.80;1.20;;;;;;5082825;27;34067;-78
2022/06/10 13:09:36;;;;;;;2.50;0.82;;;26.00;1.20;;;;;;5110605;27;35459;-76
2022/06/10 13:12:33;;;;;;;2.47;1.25;;;26.10;1.00;;;;;;5128630;27;34317;-77
2022/06/10 13:15:29;;;;;;;3.67;1.00;;;26.20;1.00;;;;;;5094768;28;34104;-75
2022/06/10 13:18:33;;;;;;;1.98;1.00;;;26.10;1.00;;;;;;5085631;27;34319;-79
2022/06/10 13:21:14;;;;;;;4.65;1.23;;;26.00;1.00;;;;;;5098739;27;35485;-77
2022/06/10 13:24:03;;;;;;;3.78;0.95;;;25.70;1.00;;;;;;5126863;27;34324;-78
2022/06/10 13:26:30;;;;;;;2.22;0.80;;;25.80;1.00;;;;;;5114395;27;34183;-79
2022/06/10 13:29:11;;;;;;;4.30;1.20;;;25.90;1.30;;;;;;5109660;27;34236;-77
2022/06/10 13:31:50;;;;;;;5.35;1.10;;;25.90;1.00;;;;;;5111889;27;34233;-77
2022/06/10 13:34:23;;;;;;;4.07;1.05;;;25.90;1.00;;;;;;5109435;27;33861;-77
2022/06/10 13:36:54;;;;;;;3.42;0.90;;;26.10;1.00;;;;;;5110707;27;34370;-77